04:36
Airports
History
Links
Donate
Help keep this website running!
PayPal
Bitcoin
This page is community maintained. The information is intended for PC simulator navigation or reference.
Always use approved charts for navigation.
78V
GosneyEdited 07-Mar-2012
Gosney (78V)
Kaycee, Wyoming, United States (82639)
4
Lat/Lng:43° 43' 19.9" N / 106° 40' 2.17" W
43.722194 / -106.667269
Elevation:4830'ft / 1472mMSL
ID / ICAO:78V
Runways:1
Longest:14-32
Grass 1,400m / 4,594ft
(Edited 2012-03-07) [ Sign in to Edit ]
Nearby Weather03:53 GMT 2018-02-23
Nearby weather at KBYG, Johnson County located 45.6 nautical miles from 78V
Altimeter: 30.04
Visibility: 10.0 statute miles
Wind: 5 knots (from 300°)
Temp: -10°c / 14°f
Humidity: 43.6%

METAR: KBYG 230353Z AUTO 30005KT 10SM CLR M10/M20 A3004 RMK AO2 SLP233 T11001200

(Powered by phpweather)
Nearby VORs <50NM
Nearby NDBs
Runway 14 / 32
Dimensions:1400.1 x 30.5m 4594' x 100'ft
Surface:Grass
Runway 14 [A]Runway 32 [B]
Heading:153°TH 333°TH
Lat:
Lng:
43° 43' 40.13"N
106° 40' 16.43"W
43° 42' 59.66"N
106° 39' 47.9"W
User Notes and Comments
43° 43' 19.9" N / 106° 40' 2.17" W
Distance To
Airport ID:
Nearby Airports
(R) Iberlin Strip 31.4 NM
WY23 NE 39°
(R) Iberlin Ranch Nr 2 34.8 NM
WY18 ESE 108°
4 Otter Creek Ranch 35.1 NM
8V8 WNW 287°
(R) Orchard Ranch 37.6 NM
WY38 W 259°
(R) Red Reflet Ranch 39.3 NM
WY00 WNW 295°
(R) Iberlin Ranch Nr 1 39.8 NM
WY22 ENE 66°
(U) Johnson County 45.6 NM
KBYG ( WX ) N 356°
VFR Chart
Flight Planning at SkyVector.com